sensor_id;sensor_type;location;lat;lon;timestamp;temperature;humidity
12089;DHT22;6107;49.078;8.578;2023-09-18T00:00:02;20.00;99.90
12089;DHT22;6107;49.078;8.578;2023-09-18T00:02:30;20.00;99.90
12089;DHT22;6107;49.078;8.578;2023-09-18T00:04:56;20.00;99.90
12089;DHT22;6107;49.078;8.578;2023-09-18T00:07:22;20.00;99.90
12089;DHT22;6107;49.078;8.578;2023-09-18T00:09:50;19.90;99.90
12089;DHT22;6107;49.078;8.578;2023-09-18T00:12:16;19.90;99.90
12089;DHT22;6107;49.078;8.578;2023-09-18T00:14:42;19.90;99.90
12089;DHT22;6107;49.078;8.578;2023-09-18T00:17:07;20.00;99.90
12089;DHT22;6107;49.078;8.578;2023-09-18T00:19:33;20.00;99.90
12089;DHT22;6107;49.078;8.578;2023-09-18T00:21:59;19.90;99.90
12089;DHT22;6107;49.078;8.578;2023-09-18T00:24:26;19.90;99.90
12089;DHT22;6107;49.078;8.578;2023-09-18T00:26:52;19.90;99.90
12089;DHT22;6107;49.078;8.578;2023-09-18T00:29:18;19.90;99.90
12089;DHT22;6107;49.078;8.578;2023-09-18T00:31:44;19.90;99.90
12089;DHT22;6107;49.078;8.578;2023-09-18T00:34:09;19.90;99.90
12089;DHT22;6107;49.078;8.578;2023-09-18T00:36:35;19.90;99.90
12089;DHT22;6107;49.078;8.578;2023-09-18T00:39:00;19.90;99.90
12089;DHT22;6107;49.078;8.578;2023-09-18T00:41:26;19.80;99.90
12089;DHT22;6107;49.078;8.578;2023-09-18T00:43:51;19.80;99.90
12089;DHT22;6107;49.078;8.578;2023-09-18T00:46:17;19.80;99.90
12089;DHT22;6107;49.078;8.578;2023-09-18T00:48:42;19.60;99.90
12089;DHT22;6107;49.078;8.578;2023-09-18T00:51:08;19.30;99.90
12089;DHT22;6107;49.078;8.578;2023-09-18T00:53:35;19.10;99.90
12089;DHT22;6107;49.078;8.578;2023-09-18T00:56:03;19.10;99.90
12089;DHT22;6107;49.078;8.578;2023-09-18T00:58:29;19.30;99.90
12089;DHT22;6107;49.078;8.578;2023-09-18T01:00:55;19.50;99.90
12089;DHT22;6107;49.078;8.578;2023-09-18T01:03:21;19.50;99.90
12089;DHT22;6107;49.078;8.578;2023-09-18T01:05:46;19.10;99.90
12089;DHT22;6107;49.078;8.578;2023-09-18T01:08:12;19.10;99.90
12089;DHT22;6107;49.078;8.578;2023-09-18T01:10:56;19.30;99.90
12089;DHT22;6107;49.078;8.578;2023-09-18T01:13:30;19.40;99.90
12089;DHT22;6107;49.078;8.578;2023-09-18T01:16:08;19.50;99.90
12089;DHT22;6107;49.078;8.578;2023-09-18T01:18:35;19.40;99.90
12089;DHT22;6107;49.078;8.578;2023-09-18T01:21:01;19.50;99.90
12089;DHT22;6107;49.078;8.578;2023-09-18T01:23:26;19.50;99.90
12089;DHT22;6107;49.078;8.578;2023-09-18T01:25:51;19.60;99.90
12089;DHT22;6107;49.078;8.578;2023-09-18T01:28:17;19.70;99.90
12089;DHT22;6107;49.078;8.578;2023-09-18T01:30:42;19.80;99.90
12089;DHT22;6107;49.078;8.578;2023-09-18T01:33:09;19.70;99.90
12089;DHT22;6107;49.078;8.578;2023-09-18T01:35:36;19.70;99.90
12089;DHT22;6107;49.078;8.578;2023-09-18T01:38:02;19.70;99.90
12089;DHT22;6107;49.078;8.578;2023-09-18T01:40:28;19.70;99.90
12089;DHT22;6107;49.078;8.578;2023-09-18T01:42:54;19.60;99.90
12089;DHT22;6107;49.078;8.578;2023-09-18T01:45:20;19.70;99.90
12089;DHT22;6107;49.078;8.578;2023-09-18T01:47:46;19.70;99.90
12089;DHT22;6107;49.078;8.578;2023-09-18T01:50:11;19.70;99.90
12089;DHT22;6107;49.078;8.578;2023-09-18T01:52:37;19.80;99.90
12089;DHT22;6107;49.078;8.578;2023-09-18T01:55:03;20.00;99.90
12089;DHT22;6107;49.078;8.578;2023-09-18T01:57:33;20.00;99.90
12089;DHT22;6107;49.078;8.578;2023-09-18T01:59:59;20.00;99.90
12089;DHT22;6107;49.078;8.578;2023-09-18T02:02:24;20.00;99.90
12089;DHT22;6107;49.078;8.578;2023-09-18T02:04:50;19.90;99.90
12089;DHT22;6107;49.078;8.578;2023-09-18T02:07:15;20.00;99.90
12089;DHT22;6107;49.078;8.578;2023-09-18T02:09:41;20.30;99.90
12089;DHT22;6107;49.078;8.578;2023-09-18T02:12:06;20.20;99.90
12089;DHT22;6107;49.078;8.578;2023-09-18T02:14:32;20.20;99.90
12089;DHT22;6107;49.078;8.578;2023-09-18T02:16:59;20.40;99.90
12089;DHT22;6107;49.078;8.578;2023-09-18T02:19:25;20.70;99.90
12089;DHT22;6107;49.078;8.578;2023-09-18T02:21:51;21.30;99.90
12089;DHT22;6107;49.078;8.578;2023-09-18T02:24:17;21.60;99.90
12089;DHT22;6107;49.078;8.578;2023-09-18T02:26:42;21.60;99.90
12089;DHT22;6107;49.078;8.578;2023-09-18T02:29:09;21.60;99.90
12089;DHT22;6107;49.078;8.578;2023-09-18T02:31:39;21.60;99.90
12089;DHT22;6107;49.078;8.578;2023-09-18T02:34:05;21.50;99.90
12089;DHT22;6107;49.078;8.578;2023-09-18T02:36:32;21.50;99.90
12089;DHT22;6107;49.078;8.578;2023-09-18T02:38:58;21.40;99.90
12089;DHT22;6107;49.078;8.578;2023-09-18T02:41:23;21.40;99.90
12089;DHT22;6107;49.078;8.578;2023-09-18T02:43:49;21.30;99.90
12089;DHT22;6107;49.078;8.578;2023-09-18T02:46:14;21.40;99.90
12089;DHT22;6107;49.078;8.578;2023-09-18T02:48:40;21.30;99.90
12089;DHT22;6107;49.078;8.578;2023-09-18T02:51:05;21.40;99.90
12089;DHT22;6107;49.078;8.578;2023-09-18T02:53:31;21.40;99.90
12089;DHT22;6107;49.078;8.578;2023-09-18T02:55:58;21.40;99.90
12089;DHT22;6107;49.078;8.578;2023-09-18T02:58:24;21.40;99.90
12089;DHT22;6107;49.078;8.578;2023-09-18T03:00:55;21.40;99.90
12089;DHT22;6107;49.078;8.578;2023-09-18T03:03:22;21.50;99.90
12089;DHT22;6107;49.078;8.578;2023-09-18T03:05:48;21.60;99.90
12089;DHT22;6107;49.078;8.578;2023-09-18T03:08:14;21.70;99.90
12089;DHT22;6107;49.078;8.578;2023-09-18T03:10:41;21.70;99.90
12089;DHT22;6107;49.078;8.578;2023-09-18T03:13:08;21.90;99.90
12089;DHT22;6107;49.078;8.578;2023-09-18T03:15:34;21.90;99.90
12089;DHT22;6107;49.078;8.578;2023-09-18T03:18:01;21.90;99.90
12089;DHT22;6107;49.078;8.578;2023-09-18T03:20:28;21.80;99.90
12089;DHT22;6107;49.078;8.578;2023-09-18T03:22:58;21.70;99.90
12089;DHT22;6107;49.078;8.578;2023-09-18T03:25:24;21.60;99.90
12089;DHT22;6107;49.078;8.578;2023-09-18T03:27:51;21.60;99.90
12089;DHT22;6107;49.078;8.578;2023-09-18T03:30:17;21.60;99.90
12089;DHT22;6107;49.078;8.578;2023-09-18T03:32:43;21.50;99.90
12089;DHT22;6107;49.078;8.578;2023-09-18T03:35:09;21.50;99.90
12089;DHT22;6107;49.078;8.578;2023-09-18T03:37:46;21.50;99.90
12089;DHT22;6107;49.078;8.578;2023-09-18T03:40:12;21.40;99.90
12089;DHT22;6107;49.078;8.578;2023-09-18T03:42:38;21.40;99.90
12089;DHT22;6107;49.078;8.578;2023-09-18T03:45:06;21.40;99.90
12089;DHT22;6107;49.078;8.578;2023-09-18T03:47:33;21.40;99.90
12089;DHT22;6107;49.078;8.578;2023-09-18T03:49:59;21.40;99.90
12089;DHT22;6107;49.078;8.578;2023-09-18T03:52:24;21.40;99.90
12089;DHT22;6107;49.078;8.578;2023-09-18T03:54:50;21.30;99.90
12089;DHT22;6107;49.078;8.578;2023-09-18T03:57:16;21.30;99.90
12089;DHT22;6107;49.078;8.578;2023-09-18T03:59:42;21.20;99.90
12089;DHT22;6107;49.078;8.578;2023-09-18T04:02:07;21.20;99.90
12089;DHT22;6107;49.078;8.578;2023-09-18T04:04:33;21.10;99.90
12089;DHT22;6107;49.078;8.578;2023-09-18T04:06:58;21.00;99.90
12089;DHT22;6107;49.078;8.578;2023-09-18T04:09:24;20.90;99.90
12089;DHT22;6107;49.078;8.578;2023-09-18T04:11:49;20.80;99.90
12089;DHT22;6107;49.078;8.578;2023-09-18T04:14:15;20.60;99.90
12089;DHT22;6107;49.078;8.578;2023-09-18T04:16:40;20.40;99.90
12089;DHT22;6107;49.078;8.578;2023-09-18T04:19:07;20.30;99.90
12089;DHT22;6107;49.078;8.578;2023-09-18T04:21:33;20.20;99.90
12089;DHT22;6107;49.078;8.578;2023-09-18T04:23:59;20.10;99.90
12089;DHT22;6107;49.078;8.578;2023-09-18T04:26:25;19.90;99.90
12089;DHT22;6107;49.078;8.578;2023-09-18T04:28:55;19.70;99.90
12089;DHT22;6107;49.078;8.578;2023-09-18T04:31:21;19.70;99.90
12089;DHT22;6107;49.078;8.578;2023-09-18T04:33:46;19.80;99.90
12089;DHT22;6107;49.078;8.578;2023-09-18T04:36:12;19.70;99.90
12089;DHT22;6107;49.078;8.578;2023-09-18T04:38:37;19.70;99.90
12089;DHT22;6107;49.078;8.578;2023-09-18T04:41:03;19.70;99.90
12089;DHT22;6107;49.078;8.578;2023-09-18T04:43:28;19.80;99.90
12089;DHT22;6107;49.078;8.578;2023-09-18T04:45:57;19.80;99.90
12089;DHT22;6107;49.078;8.578;2023-09-18T04:48:22;19.70;99.90
12089;DHT22;6107;49.078;8.578;2023-09-18T04:50:48;19.70;99.90
12089;DHT22;6107;49.078;8.578;2023-09-18T04:53:14;19.70;99.90
12089;DHT22;6107;49.078;8.578;2023-09-18T04:55:40;19.70;99.90
12089;DHT22;6107;49.078;8.578;2023-09-18T04:58:05;19.70;99.90
12089;DHT22;6107;49.078;8.578;2023-09-18T05:00:32;19.80;99.90
12089;DHT22;6107;49.078;8.578;2023-09-18T05:02:59;19.80;99.90
12089;DHT22;6107;49.078;8.578;2023-09-18T05:05:27;19.80;99.90
12089;DHT22;6107;49.078;8.578;2023-09-18T05:07:52;19.60;99.90
12089;DHT22;6107;49.078;8.578;2023-09-18T05:10:18;19.60;99.90
12089;DHT22;6107;49.078;8.578;2023-09-18T05:12:44;19.60;99.90
12089;DHT22;6107;49.078;8.578;2023-09-18T05:15:09;19.70;99.90
12089;DHT22;6107;49.078;8.578;2023-09-18T05:17:43;19.60;99.90
12089;DHT22;6107;49.078;8.578;2023-09-18T05:20:13;19.60;99.90
12089;DHT22;6107;49.078;8.578;2023-09-18T05:22:39;19.70;99.90
12089;DHT22;6107;49.078;8.578;2023-09-18T05:25:05;19.60;99.90
12089;DHT22;6107;49.078;8.578;2023-09-18T05:27:32;19.60;99.90
12089;DHT22;6107;49.078;8.578;2023-09-18T05:29:58;19.60;99.90
12089;DHT22;6107;49.078;8.578;2023-09-18T05:32:23;19.50;99.90
12089;DHT22;6107;49.078;8.578;2023-09-18T05:34:48;19.50;99.90
12089;DHT22;6107;49.078;8.578;2023-09-18T05:37:14;19.40;99.90
12089;DHT22;6107;49.078;8.578;2023-09-18T05:39:40;19.50;99.90
12089;DHT22;6107;49.078;8.578;2023-09-18T05:42:06;19.50;99.90
12089;DHT22;6107;49.078;8.578;2023-09-18T05:44:32;19.50;99.90
12089;DHT22;6107;49.078;8.578;2023-09-18T05:46:58;19.50;99.90
12089;DHT22;6107;49.078;8.578;2023-09-18T05:49:24;19.40;99.90
12089;DHT22;6107;49.078;8.578;2023-09-18T05:51:49;19.50;99.90
12089;DHT22;6107;49.078;8.578;2023-09-18T05:54:15;19.50;99.90
12089;DHT22;6107;49.078;8.578;2023-09-18T05:56:40;19.60;99.90
12089;DHT22;6107;49.078;8.578;2023-09-18T05:59:06;19.50;99.90
12089;DHT22;6107;49.078;8.578;2023-09-18T06:01:31;19.50;99.90
12089;DHT22;6107;49.078;8.578;2023-09-18T06:03:58;19.50;99.90
12089;DHT22;6107;49.078;8.578;2023-09-18T06:06:24;19.50;99.90
12089;DHT22;6107;49.078;8.578;2023-09-18T06:08:51;19.30;99.90
12089;DHT22;6107;49.078;8.578;2023-09-18T06:11:18;19.40;99.90
12089;DHT22;6107;49.078;8.578;2023-09-18T06:13:44;19.50;99.90
12089;DHT22;6107;49.078;8.578;2023-09-18T06:16:09;19.50;99.90
12089;DHT22;6107;49.078;8.578;2023-09-18T06:18:35;20.00;99.90
12089;DHT22;6107;49.078;8.578;2023-09-18T06:21:04;19.90;99.90
12089;DHT22;6107;49.078;8.578;2023-09-18T06:23:30;20.00;99.90
12089;DHT22;6107;49.078;8.578;2023-09-18T06:25:55;19.80;99.90
12089;DHT22;6107;49.078;8.578;2023-09-18T06:28:22;19.80;99.90
12089;DHT22;6107;49.078;8.578;2023-09-18T06:30:48;19.80;99.90
12089;DHT22;6107;49.078;8.578;2023-09-18T06:33:13;19.80;99.90
12089;DHT22;6107;49.078;8.578;2023-09-18T06:35:39;19.70;99.90
12089;DHT22;6107;49.078;8.578;2023-09-18T06:40:33;19.70;99.90
12089;DHT22;6107;49.078;8.578;2023-09-18T06:42:59;19.80;99.90
12089;DHT22;6107;49.078;8.578;2023-09-18T06:45:28;19.70;99.90
12089;DHT22;6107;49.078;8.578;2023-09-18T06:47:53;19.70;99.90
12089;DHT22;6107;49.078;8.578;2023-09-18T06:50:19;19.70;99.90
12089;DHT22;6107;49.078;8.578;2023-09-18T06:52:45;19.70;99.90
12089;DHT22;6107;49.078;8.578;2023-09-18T06:55:12;19.60;99.90
12089;DHT22;6107;49.078;8.578;2023-09-18T06:57:37;19.60;99.90
12089;DHT22;6107;49.078;8.578;2023-09-18T07:00:03;19.70;99.90
12089;DHT22;6107;49.078;8.578;2023-09-18T07:02:30;19.50;99.90
12089;DHT22;6107;49.078;8.578;2023-09-18T07:04:56;19.50;99.90
12089;DHT22;6107;49.078;8.578;2023-09-18T07:07:21;19.50;99.90
12089;DHT22;6107;49.078;8.578;2023-09-18T07:09:51;19.40;99.90
12089;DHT22;6107;49.078;8.578;2023-09-18T07:12:16;19.40;99.90
12089;DHT22;6107;49.078;8.578;2023-09-18T07:14:45;19.50;99.90
12089;DHT22;6107;49.078;8.578;2023-09-18T07:17:11;19.60;99.90
12089;DHT22;6107;49.078;8.578;2023-09-18T07:19:36;19.60;99.90
12089;DHT22;6107;49.078;8.578;2023-09-18T07:22:02;19.60;99.90
12089;DHT22;6107;49.078;8.578;2023-09-18T07:24:27;19.60;99.90
12089;DHT22;6107;49.078;8.578;2023-09-18T07:26:53;19.70;99.90
12089;DHT22;6107;49.078;8.578;2023-09-18T07:29:20;19.70;99.90
12089;DHT22;6107;49.078;8.578;2023-09-18T07:31:46;19.80;99.90
12089;DHT22;6107;49.078;8.578;2023-09-18T07:34:13;19.70;99.90
12089;DHT22;6107;49.078;8.578;2023-09-18T07:36:39;19.70;99.90
12089;DHT22;6107;49.078;8.578;2023-09-18T07:39:05;19.70;99.90
12089;DHT22;6107;49.078;8.578;2023-09-18T07:41:32;19.80;99.90
12089;DHT22;6107;49.078;8.578;2023-09-18T07:43:58;19.80;99.90
12089;DHT22;6107;49.078;8.578;2023-09-18T07:46:24;19.80;99.90
12089;DHT22;6107;49.078;8.578;2023-09-18T07:48:50;19.80;99.90
12089;DHT22;6107;49.078;8.578;2023-09-18T07:51:16;19.90;99.90
12089;DHT22;6107;49.078;8.578;2023-09-18T07:53:42;19.90;99.90
12089;DHT22;6107;49.078;8.578;2023-09-18T07:56:08;19.90;99.90
12089;DHT22;6107;49.078;8.578;2023-09-18T07:58:34;19.90;99.90
12089;DHT22;6107;49.078;8.578;2023-09-18T08:01:03;19.90;99.90
12089;DHT22;6107;49.078;8.578;2023-09-18T08:03:32;20.00;99.90
12089;DHT22;6107;49.078;8.578;2023-09-18T08:05:57;19.90;99.90
12089;DHT22;6107;49.078;8.578;2023-09-18T08:08:23;19.90;99.90
12089;DHT22;6107;49.078;8.578;2023-09-18T08:10:50;19.90;99.90
12089;DHT22;6107;49.078;8.578;2023-09-18T08:15:43;19.90;99.90
12089;DHT22;6107;49.078;8.578;2023-09-18T08:18:09;20.00;99.90
12089;DHT22;6107;49.078;8.578;2023-09-18T08:20:36;20.00;99.90
12089;DHT22;6107;49.078;8.578;2023-09-18T08:23:03;19.90;99.90
12089;DHT22;6107;49.078;8.578;2023-09-18T08:25:30;20.00;99.90
12089;DHT22;6107;49.078;8.578;2023-09-18T08:27:56;20.00;99.90
12089;DHT22;6107;49.078;8.578;2023-09-18T08:30:21;20.00;99.90
12089;DHT22;6107;49.078;8.578;2023-09-18T08:32:47;20.00;99.90
12089;DHT22;6107;49.078;8.578;2023-09-18T08:35:13;20.10;99.90
12089;DHT22;6107;49.078;8.578;2023-09-18T08:37:41;20.20;99.90
12089;DHT22;6107;49.078;8.578;2023-09-18T08:40:13;20.00;99.90
12089;DHT22;6107;49.078;8.578;2023-09-18T08:42:44;19.90;99.90
12089;DHT22;6107;49.078;8.578;2023-09-18T08:45:10;20.00;99.90
12089;DHT22;6107;49.078;8.578;2023-09-18T08:47:40;19.90;99.90
12089;DHT22;6107;49.078;8.578;2023-09-18T08:50:08;19.90;99.90
12089;DHT22;6107;49.078;8.578;2023-09-18T08:52:35;20.00;99.90
12089;DHT22;6107;49.078;8.578;2023-09-18T08:55:02;20.00;99.90
12089;DHT22;6107;49.078;8.578;2023-09-18T08:57:28;20.00;99.90
12089;DHT22;6107;49.078;8.578;2023-09-18T08:59:55;20.00;99.90
12089;DHT22;6107;49.078;8.578;2023-09-18T09:02:21;20.10;99.90
12089;DHT22;6107;49.078;8.578;2023-09-18T09:04:47;20.10;99.90
12089;DHT22;6107;49.078;8.578;2023-09-18T09:07:13;20.10;99.90
12089;DHT22;6107;49.078;8.578;2023-09-18T09:09:39;20.20;99.90
12089;DHT22;6107;49.078;8.578;2023-09-18T09:12:05;20.20;99.90
12089;DHT22;6107;49.078;8.578;2023-09-18T09:14:31;20.20;99.90
12089;DHT22;6107;49.078;8.578;2023-09-18T09:16:57;20.10;99.90
12089;DHT22;6107;49.078;8.578;2023-09-18T09:19:33;20.30;99.90
12089;DHT22;6107;49.078;8.578;2023-09-18T09:22:02;20.20;99.90
12089;DHT22;6107;49.078;8.578;2023-09-18T09:24:41;20.30;99.90
12089;DHT22;6107;49.078;8.578;2023-09-18T09:27:08;20.30;99.90
12089;DHT22;6107;49.078;8.578;2023-09-18T09:29:34;20.70;99.90
12089;DHT22;6107;49.078;8.578;2023-09-18T09:32:32;20.50;99.90
12089;DHT22;6107;49.078;8.578;2023-09-18T09:34:58;20.50;99.90
12089;DHT22;6107;49.078;8.578;2023-09-18T09:37:30;20.60;99.90
12089;DHT22;6107;49.078;8.578;2023-09-18T09:39:56;21.00;99.90
12089;DHT22;6107;49.078;8.578;2023-09-18T09:42:22;21.40;99.90
12089;DHT22;6107;49.078;8.578;2023-09-18T09:45:15;21.60;99.90
12089;DHT22;6107;49.078;8.578;2023-09-18T09:47:41;21.90;99.90
12089;DHT22;6107;49.078;8.578;2023-09-18T09:50:09;21.80;99.90
12089;DHT22;6107;49.078;8.578;2023-09-18T09:52:35;21.20;99.90
12089;DHT22;6107;49.078;8.578;2023-09-18T09:55:02;21.00;99.90
12089;DHT22;6107;49.078;8.578;2023-09-18T09:57:30;20.70;99.90
12089;DHT22;6107;49.078;8.578;2023-09-18T10:00:03;20.70;99.90
12089;DHT22;6107;49.078;8.578;2023-09-18T10:02:48;20.70;99.90
12089;DHT22;6107;49.078;8.578;2023-09-18T10:05:16;20.80;99.90
12089;DHT22;6107;49.078;8.578;2023-09-18T10:07:43;20.80;99.90
12089;DHT22;6107;49.078;8.578;2023-09-18T10:14:00;20.90;99.90
12089;DHT22;6107;49.078;8.578;2023-09-18T10:22:06;20.90;99.90
12089;DHT22;6107;49.078;8.578;2023-09-18T10:24:37;20.90;99.90
12089;DHT22;6107;49.078;8.578;2023-09-18T14:17:30;24.70;99.90
12089;DHT22;6107;49.078;8.578;2023-09-18T14:24:51;26.70;99.90
12089;DHT22;6107;49.078;8.578;2023-09-18T14:27:17;26.30;99.90
12089;DHT22;6107;49.078;8.578;2023-09-18T14:29:42;25.90;99.90
12089;DHT22;6107;49.078;8.578;2023-09-18T14:32:08;26.10;99.90
12089;DHT22;6107;49.078;8.578;2023-09-18T14:34:34;26.30;99.90
12089;DHT22;6107;49.078;8.578;2023-09-18T14:37:02;25.80;99.90
12089;DHT22;6107;49.078;8.578;2023-09-18T14:39:31;25.60;99.90
12089;DHT22;6107;49.078;8.578;2023-09-18T15:53:11;25.50;99.90
12089;DHT22;6107;49.078;8.578;2023-09-18T15:55:36;24.70;99.90
12089;DHT22;6107;49.078;8.578;2023-09-18T15:58:02;24.30;99.90
12089;DHT22;6107;49.078;8.578;2023-09-18T16:00:28;24.00;99.90
12089;DHT22;6107;49.078;8.578;2023-09-18T16:02:55;24.00;99.90
12089;DHT22;6107;49.078;8.578;2023-09-18T16:22:10;23.70;99.90
12089;DHT22;6107;49.078;8.578;2023-09-18T16:24:42;23.40;99.90
12089;DHT22;6107;49.078;8.578;2023-09-18T16:27:08;23.20;99.90
12089;DHT22;6107;49.078;8.578;2023-09-18T16:29:34;22.80;99.90
12089;DHT22;6107;49.078;8.578;2023-09-18T16:31:59;22.80;99.90
12089;DHT22;6107;49.078;8.578;2023-09-18T16:34:25;22.60;99.90
12089;DHT22;6107;49.078;8.578;2023-09-18T16:36:51;22.40;99.90
12089;DHT22;6107;49.078;8.578;2023-09-18T16:39:17;22.40;99.90
12089;DHT22;6107;49.078;8.578;2023-09-18T17:33:04;20.90;99.90
12089;DHT22;6107;49.078;8.578;2023-09-18T17:35:31;21.10;99.90
12089;DHT22;6107;49.078;8.578;2023-09-18T17:37:58;19.80;99.90
12089;DHT22;6107;49.078;8.578;2023-09-18T17:40:23;19.50;99.90
12089;DHT22;6107;49.078;8.578;2023-09-18T17:42:49;19.60;99.90
12089;DHT22;6107;49.078;8.578;2023-09-18T17:45:16;19.90;99.90
12089;DHT22;6107;49.078;8.578;2023-09-18T17:47:42;19.70;99.90
12089;DHT22;6107;49.078;8.578;2023-09-18T17:50:08;19.10;99.90
12089;DHT22;6107;49.078;8.578;2023-09-18T17:52:34;19.10;99.90
12089;DHT22;6107;49.078;8.578;2023-09-18T17:54:59;19.50;99.90
12089;DHT22;6107;49.078;8.578;2023-09-18T17:57:27;19.60;99.90
12089;DHT22;6107;49.078;8.578;2023-09-18T17:59:52;19.60;99.90
12089;DHT22;6107;49.078;8.578;2023-09-18T18:02:18;19.60;99.90
12089;DHT22;6107;49.078;8.578;2023-09-18T18:04:43;19.40;99.90
12089;DHT22;6107;49.078;8.578;2023-09-18T18:07:09;19.30;99.90
12089;DHT22;6107;49.078;8.578;2023-09-18T18:09:35;19.20;99.90
12089;DHT22;6107;49.078;8.578;2023-09-18T18:12:01;19.20;99.90
12089;DHT22;6107;49.078;8.578;2023-09-18T18:14:29;18.90;99.90
12089;DHT22;6107;49.078;8.578;2023-09-18T18:16:55;18.90;99.90
12089;DHT22;6107;49.078;8.578;2023-09-18T18:19:22;18.80;99.90
12089;DHT22;6107;49.078;8.578;2023-09-18T18:21:47;18.70;99.90
12089;DHT22;6107;49.078;8.578;2023-09-18T18:24:13;18.90;99.90
12089;DHT22;6107;49.078;8.578;2023-09-18T18:26:39;18.90;99.90
12089;DHT22;6107;49.078;8.578;2023-09-18T18:29:05;19.00;99.90
12089;DHT22;6107;49.078;8.578;2023-09-18T18:31:31;19.00;99.90
12089;DHT22;6107;49.078;8.578;2023-09-18T18:33:57;19.10;99.90
12089;DHT22;6107;49.078;8.578;2023-09-18T18:36:28;19.20;99.90
12089;DHT22;6107;49.078;8.578;2023-09-18T18:38:54;19.10;99.90
12089;DHT22;6107;49.078;8.578;2023-09-18T20:00:49;17.70;99.90
12089;DHT22;6107;49.078;8.578;2023-09-18T20:44:50;17.20;99.90
12089;DHT22;6107;49.078;8.578;2023-09-18T20:58:31;17.30;99.90
12089;DHT22;6107;49.078;8.578;2023-09-18T21:37:39;16.70;99.90
12089;DHT22;6107;49.078;8.578;2023-09-18T21:40:36;16.70;99.90
12089;DHT22;6107;49.078;8.578;2023-09-18T21:54:35;17.00;99.90
12089;DHT22;6107;49.078;8.578;2023-09-18T22:12:55;17.20;99.90
12089;DHT22;6107;49.078;8.578;2023-09-18T22:16:25;17.40;99.90
12089;DHT22;6107;49.078;8.578;2023-09-18T23:13:24;17.50;99.90
12089;DHT22;6107;49.078;8.578;2023-09-18T23:20:35;17.50;99.90
12089;DHT22;6107;49.078;8.578;2023-09-18T23:44:31;17.30;99.90
